Terminal Aerodrome Forecast
Issued by NWS

Home | Current Version | Previous Version | Graphics & Text | Print | Product List | Glossary On
Versions: 1 2 3 4 5 6 7 8 9 10 11 12 13 14 15 16 17 18 19 20 21 22 23
148
FTUS42 KMHX 211740
TAFPGV
TAF
KPGV 211740Z 2118/2218 15005KT P6SM OVC007
     FM212100 VRB04KT 3SM -SHRA BR OVC007
     FM220100 17006KT 3SM -SHRA BR OVC003
     FM220500 19008KT 2SM BR OVC003
     FM221300 20005KT 3SM SHRA VCTS OVC007CB
      AMD LTD TO CLD VIS AND WIND=

USA.gov is the U.S. government's official web portal to all federal, state and local government web resources and services.